createdAt,value
2023-06-26T00:00:15.082Z,97006.59
2023-06-26T00:02:41.769Z,97007.09
2023-06-26T00:05:08.784Z,97019.19
2023-06-26T00:07:35.475Z,97013.91
2023-06-26T00:10:05.946Z,97015.28
2023-06-26T00:12:32.857Z,97011.16
2023-06-26T00:14:59.529Z,97009.81
2023-06-26T00:17:26.188Z,97013.66
2023-06-26T00:19:52.817Z,97007.66
2023-06-26T00:22:19.883Z,97012.56
2023-06-26T00:24:46.533Z,97015.09
2023-06-26T00:27:13.351Z,97005.84
2023-06-26T00:29:40.021Z,97011.03
2023-06-26T00:32:07.489Z,97015.97
2023-06-26T00:34:34.155Z,97014.44
2023-06-26T00:37:00.846Z,97011.59
2023-06-26T00:39:27.515Z,97012.13
2023-06-26T00:41:54.153Z,97015.31
2023-06-26T00:44:20.786Z,97016.13
2023-06-26T00:46:47.897Z,97017.53
2023-06-26T00:49:14.577Z,97019.75
2023-06-26T00:51:41.189Z,97015.72
2023-06-26T00:54:07.777Z,97017.94
2023-06-26T00:56:34.364Z,97023.22
2023-06-26T00:59:00.982Z,97021.63
2023-06-26T01:01:27.624Z,97029.84
2023-06-26T01:03:54.231Z,97025.00
2023-06-26T01:06:21.698Z,97028.47
2023-06-26T01:08:48.279Z,97034.00
2023-06-26T01:11:15.669Z,97034.84
2023-06-26T01:13:43.082Z,97036.78
2023-06-26T01:16:09.677Z,97030.75
2023-06-26T01:18:36.318Z,97036.00
2023-06-26T01:21:03.013Z,97028.06
2023-06-26T01:23:52.765Z,97029.44
2023-06-26T01:26:22.660Z,97028.66
2023-06-26T01:28:50.483Z,97027.50
2023-06-26T01:31:17.079Z,97025.66
2023-06-26T01:33:43.721Z,97024.84
2023-06-26T01:36:10.353Z,97023.22
2023-06-26T01:38:37.094Z,97024.63
2023-06-26T01:41:04.649Z,97018.09
2023-06-26T01:44:02.382Z,97015.09
2023-06-26T01:46:38.423Z,97013.47
2023-06-26T01:49:13.894Z,97016.50
2023-06-26T01:51:43.233Z,97025.03
2023-06-26T01:54:11.323Z,97021.75
2023-06-26T01:56:37.915Z,97027.97
2023-06-26T01:59:04.556Z,97038.34
2023-06-26T02:01:31.171Z,97031.53
2023-06-26T02:03:57.854Z,97035.47
2023-06-26T02:06:24.514Z,97037.09
2023-06-26T02:08:51.119Z,97031.34
2023-06-26T02:11:17.773Z,97033.00
2023-06-26T02:13:44.417Z,97040.69
2023-06-26T02:16:11.102Z,97037.69
2023-06-26T02:18:37.714Z,97038.78
2023-06-26T02:21:04.682Z,97032.25
2023-06-26T02:23:31.403Z,97035.84
2023-06-26T02:25:58.114Z,97029.06
2023-06-26T02:28:24.936Z,97042.72
2023-06-26T02:30:51.571Z,97046.31
2023-06-26T02:33:18.254Z,97039.19
2023-06-26T02:35:44.973Z,97041.66
2023-06-26T02:38:11.610Z,97047.38
2023-06-26T02:40:38.657Z,97048.22
2023-06-26T02:43:05.688Z,97043.28
2023-06-26T02:45:32.290Z,97049.84
2023-06-26T02:47:59.021Z,97044.13
2023-06-26T02:50:25.718Z,97046.03
2023-06-26T02:52:52.365Z,97050.19
2023-06-26T02:55:21.570Z,97048.25
2023-06-26T02:57:50.387Z,97048.00
2023-06-26T03:00:17.211Z,97041.72
2023-06-26T03:02:43.878Z,97041.75
2023-06-26T03:05:10.749Z,97048.03
2023-06-26T03:07:37.395Z,97043.97
2023-06-26T03:10:04.001Z,97054.03
2023-06-26T03:12:30.644Z,97052.66
2023-06-26T03:14:57.228Z,97045.59
2023-06-26T03:17:23.901Z,97052.97
2023-06-26T03:19:50.641Z,97058.16
2023-06-26T03:22:17.327Z,97050.81
2023-06-26T03:24:45.190Z,97058.75
2023-06-26T03:27:11.858Z,97063.63
2023-06-26T03:29:38.484Z,97058.69
2023-06-26T03:32:05.428Z,97063.59
2023-06-26T03:34:32.084Z,97064.41
2023-06-26T03:36:58.729Z,97061.16
2023-06-26T03:39:25.318Z,97059.78
2023-06-26T03:41:51.949Z,97058.16
2023-06-26T03:44:18.609Z,97060.38
2023-06-26T03:46:45.286Z,97058.50
2023-06-26T03:49:12.027Z,97064.78
2023-06-26T03:51:38.745Z,97064.25
2023-06-26T03:54:05.407Z,97065.56
2023-06-26T03:56:32.053Z,97065.56
2023-06-26T03:58:58.709Z,97065.31
2023-06-26T04:01:25.411Z,97068.59
2023-06-26T04:03:52.112Z,97076.00
2023-06-26T04:06:18.741Z,97080.34
2023-06-26T04:08:45.319Z,97080.06
2023-06-26T04:11:11.918Z,97087.69
2023-06-26T04:13:38.793Z,97086.91
2023-06-26T04:16:05.442Z,97092.59
2023-06-26T04:18:32.033Z,97092.03
2023-06-26T04:21:05.920Z,97089.03
2023-06-26T04:23:32.568Z,97082.50
2023-06-26T04:25:59.483Z,97093.66
2023-06-26T04:28:26.390Z,97088.19
2023-06-26T04:30:53.077Z,97092.59
2023-06-26T04:33:19.731Z,97084.94
2023-06-26T04:35:46.392Z,97093.13
2023-06-26T04:38:13.036Z,97088.72
2023-06-26T04:40:39.833Z,97089.81
2023-06-26T04:43:06.558Z,97093.59
2023-06-26T04:45:33.393Z,97093.03
2023-06-26T04:48:00.083Z,97089.19
2023-06-26T04:50:26.904Z,97088.13
2023-06-26T04:52:53.557Z,97100.38
2023-06-26T04:55:20.241Z,97095.97
2023-06-26T04:57:46.832Z,97109.28
2023-06-26T05:00:14.192Z,97108.44
2023-06-26T05:02:41.047Z,97098.38
2023-06-26T05:05:07.873Z,97106.72
2023-06-26T05:07:34.497Z,97099.63
2023-06-26T05:10:01.108Z,97103.41
2023-06-26T05:12:27.686Z,97105.31
2023-06-26T05:14:54.265Z,97104.13
2023-06-26T05:17:20.937Z,97109.53
2023-06-26T05:19:47.576Z,97098.03
2023-06-26T05:22:14.358Z,97097.19
2023-06-26T05:24:41.168Z,97090.88
2023-06-26T05:27:08.249Z,97092.44
2023-06-26T05:29:37.886Z,97084.19
2023-06-26T05:32:05.758Z,97089.81
2023-06-26T05:34:32.404Z,97090.88
2023-06-26T05:36:59.643Z,97087.50
2023-06-26T05:39:26.644Z,97088.00
2023-06-26T05:41:53.381Z,97095.06
2023-06-26T05:44:19.973Z,97105.09
2023-06-26T05:46:46.878Z,97100.66
2023-06-26T05:49:15.308Z,97105.81
2023-06-26T05:51:42.262Z,97092.34
2023-06-26T05:54:09.188Z,97088.44
2023-06-26T05:56:35.878Z,97083.38
2023-06-26T05:59:02.569Z,97076.50
2023-06-26T06:01:29.235Z,97078.13
2023-06-26T06:03:55.869Z,97087.69
2023-06-26T06:06:22.512Z,97083.69
2023-06-26T06:08:49.868Z,97089.34
2023-06-26T06:11:16.611Z,97093.38
2023-06-26T06:13:43.201Z,97092.72
2023-06-26T06:16:09.854Z,97093.63
2023-06-26T06:18:36.455Z,97091.88
2023-06-26T06:21:03.076Z,97102.16
2023-06-26T06:23:29.707Z,97102.59
2023-06-26T06:25:56.373Z,97106.06
2023-06-26T06:28:22.997Z,97107.72
2023-06-26T06:30:49.853Z,97104.53
2023-06-26T06:33:16.768Z,97103.06
2023-06-26T06:35:43.421Z,97104.97
2023-06-26T06:38:10.009Z,97108.44
2023-06-26T06:40:37.111Z,97100.28
2023-06-26T06:43:03.918Z,97110.06
2023-06-26T06:45:30.556Z,97104.16
2023-06-26T06:47:57.280Z,97102.88
2023-06-26T06:50:23.930Z,97094.47
2023-06-26T06:52:50.623Z,97097.06
2023-06-26T06:55:17.287Z,97092.19
2023-06-26T06:57:44.054Z,97090.09
2023-06-26T07:00:14.288Z,97093.25
2023-06-26T07:02:43.398Z,97096.66
2023-06-26T07:05:10.073Z,97091.09
2023-06-26T07:07:37.145Z,97088.13
2023-06-26T07:10:13.894Z,97097.50
2023-06-26T07:12:40.575Z,97085.78
2023-06-26T07:15:07.636Z,97094.56
2023-06-26T07:17:34.753Z,97096.66
2023-06-26T07:20:02.306Z,97096.56
2023-06-26T07:22:28.984Z,97093.81
2023-06-26T07:24:55.645Z,97098.41
2023-06-26T07:27:22.283Z,97091.19
2023-06-26T07:29:48.959Z,97091.59
2023-06-26T07:32:15.926Z,97089.03
2023-06-26T07:34:42.791Z,97088.94
2023-06-26T07:37:09.456Z,97089.78
2023-06-26T07:39:36.328Z,97090.34
2023-06-26T07:42:02.936Z,97092.00
2023-06-26T07:44:29.555Z,97084.84
2023-06-26T07:46:56.238Z,97090.59
2023-06-26T07:49:22.983Z,97092.09
2023-06-26T07:51:49.632Z,97087.09
2023-06-26T07:54:16.242Z,97085.50
2023-06-26T07:56:59.474Z,97085.69
2023-06-26T07:59:27.166Z,97085.88
2023-06-26T08:01:54.361Z,97086.56
2023-06-26T08:04:21.531Z,97088.09
2023-06-26T08:06:54.835Z,97085.25
2023-06-26T08:09:23.773Z,97083.81
2023-06-26T08:11:50.435Z,97090.69
2023-06-26T08:14:17.149Z,97095.09
2023-06-26T08:16:44.117Z,97089.97
2023-06-26T08:19:11.212Z,97097.56
2023-06-26T08:21:38.068Z,97085.88
2023-06-26T08:24:05.922Z,97095.00
2023-06-26T08:26:32.615Z,97094.63
2023-06-26T08:28:59.301Z,97096.78
2023-06-26T08:31:25.949Z,97081.94
2023-06-26T08:33:52.619Z,97085.84
2023-06-26T08:36:19.286Z,97084.78
2023-06-26T08:38:45.856Z,97090.38
2023-06-26T08:41:12.423Z,97088.94
2023-06-26T08:43:39.011Z,97089.63
2023-06-26T08:46:06.452Z,97078.97
2023-06-26T08:48:33.554Z,97078.03
2023-06-26T08:51:02.205Z,97072.59
2023-06-26T08:53:48.782Z,97075.16
2023-06-26T08:56:16.221Z,97069.38
2023-06-26T08:58:43.992Z,97068.63
2023-06-26T09:01:10.793Z,97073.19
2023-06-26T09:03:37.443Z,97070.13
2023-06-26T09:06:04.119Z,97073.84
2023-06-26T09:08:30.709Z,97076.28
2023-06-26T09:10:57.716Z,97072.56
2023-06-26T09:13:29.957Z,97072.06
2023-06-26T09:15:57.210Z,97076.31
2023-06-26T09:18:23.988Z,97083.28
2023-06-26T09:20:50.845Z,97076.31
2023-06-26T09:23:17.618Z,97075.84
2023-06-26T09:25:44.231Z,97073.56
2023-06-26T09:28:10.865Z,97079.06
2023-06-26T09:30:37.781Z,97083.91
2023-06-26T09:33:17.894Z,97087.16
2023-06-26T09:35:45.138Z,97078.22
2023-06-26T09:38:12.473Z,97077.72
2023-06-26T09:40:39.414Z,97079.66
2023-06-26T09:43:06.645Z,97077.06
2023-06-26T09:45:34.297Z,97080.16
2023-06-26T09:48:07.333Z,97081.13
2023-06-26T09:50:34.245Z,97074.63
2023-06-26T09:53:10.400Z,97082.41
2023-06-26T09:55:37.154Z,97074.63
2023-06-26T09:58:04.984Z,97076.44
2023-06-26T10:00:32.438Z,97078.88
2023-06-26T10:03:00.381Z,97067.84
2023-06-26T10:05:27.197Z,97076.31
2023-06-26T10:07:55.050Z,97066.75
2023-06-26T10:10:23.411Z,97070.84
2023-06-26T10:12:50.205Z,97066.97
2023-06-26T10:15:16.867Z,97075.44
2023-06-26T10:17:44.028Z,97067.47
2023-06-26T10:20:10.835Z,97067.13
2023-06-26T10:22:44.964Z,97064.22
2023-06-26T10:25:11.617Z,97067.13
2023-06-26T10:27:40.850Z,97067.72
2023-06-26T10:30:12.325Z,97075.47
2023-06-26T10:32:39.038Z,97077.56
2023-06-26T10:35:07.287Z,97070.03
2023-06-26T10:37:49.536Z,97069.78
2023-06-26T10:40:22.792Z,97069.69
2023-06-26T10:42:50.958Z,97080.59
2023-06-26T10:45:18.574Z,97076.38
2023-06-26T10:47:49.083Z,97078.38
2023-06-26T10:50:43.388Z,97075.72
2023-06-26T10:53:16.692Z,97071.16
2023-06-26T10:55:58.644Z,97062.53
2023-06-26T10:58:31.538Z,97070.97
2023-06-26T11:01:13.190Z,97066.91
2023-06-26T11:03:40.269Z,97060.28
2023-06-26T11:06:10.288Z,97058.81
2023-06-26T11:09:00.766Z,97061.44
2023-06-26T11:11:52.429Z,97056.00
2023-06-26T11:14:19.336Z,97062.00
2023-06-26T11:16:45.919Z,97058.00
2023-06-26T11:19:12.542Z,97054.72
2023-06-26T11:21:39.130Z,97058.41
2023-06-26T11:24:08.667Z,97060.47
2023-06-26T11:26:41.659Z,97054.50
2023-06-26T11:29:08.318Z,97065.34
2023-06-26T11:31:36.024Z,97058.44
2023-06-26T11:34:07.159Z,97058.88
2023-06-26T11:36:33.754Z,97057.19
2023-06-26T11:39:01.425Z,97059.97
2023-06-26T11:41:29.301Z,97067.06
2023-06-26T11:43:55.937Z,97068.59
2023-06-26T11:46:22.870Z,97062.38
2023-06-26T11:48:49.789Z,97066.59
2023-06-26T11:51:16.555Z,97066.28
2023-06-26T11:53:44.143Z,97069.28
2023-06-26T11:56:11.414Z,97061.31
2023-06-26T11:58:55.770Z,97057.50
2023-06-26T12:01:22.419Z,97049.63
2023-06-26T12:03:49.652Z,97050.81
2023-06-26T12:06:16.636Z,97048.50
2023-06-26T12:08:43.289Z,97058.47
2023-06-26T12:11:09.929Z,97052.34
2023-06-26T12:13:36.526Z,97047.66
2023-06-26T12:16:03.193Z,97042.19
2023-06-26T12:18:36.310Z,97049.00
2023-06-26T12:21:02.994Z,97045.19
2023-06-26T12:23:40.088Z,97044.88
2023-06-26T12:26:19.922Z,97051.47
2023-06-26T12:28:46.717Z,97054.72
2023-06-26T12:31:17.521Z,97049.63
2023-06-26T12:33:44.657Z,97050.75
2023-06-26T12:36:12.420Z,97052.38
2023-06-26T12:38:39.277Z,97050.25
2023-06-26T12:41:12.740Z,97053.41
2023-06-26T12:43:39.568Z,97053.28
2023-06-26T12:46:06.273Z,97045.66
2023-06-26T12:48:43.464Z,97043.69
2023-06-26T12:51:14.157Z,97048.34
2023-06-26T12:53:40.819Z,97038.63
2023-06-26T12:56:08.090Z,97032.97
2023-06-26T12:58:35.396Z,97033.41
2023-06-26T13:01:05.901Z,97025.22
2023-06-26T13:03:35.285Z,97024.66
2023-06-26T13:06:02.045Z,97016.31
2023-06-26T13:08:28.634Z,97018.19
2023-06-26T13:10:55.232Z,97004.91
2023-06-26T13:13:21.916Z,97013.06
2023-06-26T13:15:48.661Z,97010.75
2023-06-26T13:18:15.316Z,97002.91
2023-06-26T13:20:44.553Z,97010.44
2023-06-26T13:23:11.232Z,97001.50
2023-06-26T13:25:37.905Z,97004.66
2023-06-26T13:28:04.611Z,96998.28
2023-06-26T13:30:31.214Z,96999.31
2023-06-26T13:32:57.919Z,96992.28
2023-06-26T13:35:24.606Z,97002.31
2023-06-26T13:37:51.280Z,97000.81
2023-06-26T13:40:17.914Z,97003.81
2023-06-26T13:42:44.527Z,97001.13
2023-06-26T13:45:26.242Z,96995.47
2023-06-26T13:47:58.053Z,96993.59
2023-06-26T13:50:24.741Z,96989.97
2023-06-26T13:52:51.414Z,96990.56
2023-06-26T13:55:18.591Z,96995.00
2023-06-26T13:57:45.285Z,96979.44
2023-06-26T14:00:12.597Z,96987.25
2023-06-26T14:02:39.386Z,96974.59
2023-06-26T14:05:06.262Z,96974.94
2023-06-26T14:07:32.969Z,96979.44
2023-06-26T14:09:59.704Z,96976.34
2023-06-26T14:12:26.351Z,96974.56
2023-06-26T14:14:52.996Z,96973.03
2023-06-26T14:17:19.691Z,96968.88
2023-06-26T14:19:46.389Z,96971.72
2023-06-26T14:22:13.051Z,96954.66
2023-06-26T14:24:39.762Z,96968.81
2023-06-26T14:27:06.374Z,96969.63
2023-06-26T14:29:33.065Z,96961.41
2023-06-26T14:31:59.675Z,96966.66
2023-06-26T14:34:26.396Z,96966.56
2023-06-26T14:36:53.048Z,96961.16
2023-06-26T14:39:19.626Z,96956.69
2023-06-26T14:41:46.731Z,96963.91
2023-06-26T14:44:14.236Z,96964.13
2023-06-26T14:46:41.421Z,96958.41
2023-06-26T14:49:08.577Z,96956.34
2023-06-26T14:51:35.152Z,96967.25
2023-06-26T14:54:01.911Z,96963.38
2023-06-26T14:56:28.645Z,96954.03
2023-06-26T14:58:55.481Z,96953.59
2023-06-26T15:01:22.115Z,96958.41
2023-06-26T15:03:48.870Z,96958.13
2023-06-26T15:06:15.689Z,96952.09
2023-06-26T15:08:42.373Z,96955.91
2023-06-26T15:11:09.031Z,96956.97
2023-06-26T15:13:35.626Z,96955.13
2023-06-26T15:16:02.348Z,96951.84
2023-06-26T15:18:29.044Z,96944.00
2023-06-26T15:20:55.653Z,96957.75
2023-06-26T15:23:22.253Z,96949.38
2023-06-26T15:25:48.891Z,96952.63
2023-06-26T15:28:15.541Z,96948.66
2023-06-26T15:30:42.308Z,96956.72
2023-06-26T15:33:08.986Z,96954.69
2023-06-26T15:35:36.408Z,96946.22
2023-06-26T15:38:03.020Z,96954.66
2023-06-26T15:40:29.619Z,96947.34
2023-06-26T15:42:56.260Z,96946.13
2023-06-26T15:45:23.190Z,96944.00
2023-06-26T15:47:50.068Z,96942.66
2023-06-26T15:50:17.070Z,96950.34
2023-06-26T15:52:43.701Z,96943.25
2023-06-26T15:55:10.353Z,96940.78
2023-06-26T15:57:37.067Z,96939.81
2023-06-26T16:00:04.847Z,96939.50
2023-06-26T16:02:31.825Z,96938.56
2023-06-26T16:04:58.572Z,96931.69
2023-06-26T16:07:25.386Z,96939.69
2023-06-26T16:09:52.032Z,96929.31
2023-06-26T16:12:18.727Z,96929.84
2023-06-26T16:14:45.412Z,96928.69
2023-06-26T16:17:12.050Z,96933.78
2023-06-26T16:19:38.702Z,96937.84
2023-06-26T16:22:06.528Z,96939.22
2023-06-26T16:24:33.292Z,96937.75
2023-06-26T16:26:59.949Z,96937.19
2023-06-26T16:29:26.612Z,96929.78
2023-06-26T16:31:54.208Z,96943.53
2023-06-26T16:34:21.554Z,96938.06
2023-06-26T16:36:50.675Z,96942.63
2023-06-26T16:39:17.496Z,96949.19
2023-06-26T16:41:44.129Z,96940.72
2023-06-26T16:44:11.039Z,96950.13
2023-06-26T16:46:37.721Z,96940.88
2023-06-26T16:49:04.387Z,96953.34
2023-06-26T16:51:31.013Z,96947.56
2023-06-26T16:53:57.668Z,96949.16
2023-06-26T16:56:24.344Z,96948.81
2023-06-26T16:58:50.947Z,96945.19
2023-06-26T17:01:17.632Z,96952.84
2023-06-26T17:03:44.236Z,96957.25
2023-06-26T17:06:13.256Z,96953.34
2023-06-26T17:08:39.905Z,96960.38
2023-06-26T17:11:06.802Z,96951.94
2023-06-26T17:13:33.461Z,96964.41
2023-06-26T17:16:00.144Z,96956.59
2023-06-26T17:18:26.787Z,96973.13
2023-06-26T17:20:53.369Z,96969.03
2023-06-26T17:23:20.020Z,96971.97
2023-06-26T17:25:46.639Z,96978.72
2023-06-26T17:28:13.272Z,96966.84
2023-06-26T17:30:40.164Z,96977.88
2023-06-26T17:33:07.095Z,96976.31
2023-06-26T17:35:33.692Z,96984.53
2023-06-26T17:38:01.066Z,96975.91
2023-06-26T17:40:27.701Z,96988.13
2023-06-26T17:42:54.538Z,96996.78
2023-06-26T17:45:21.209Z,96980.25
2023-06-26T17:47:48.976Z,96993.88
2023-06-26T17:50:15.670Z,96998.63
2023-06-26T17:52:42.274Z,97000.44
2023-06-26T17:55:09.759Z,97008.72
2023-06-26T17:57:36.427Z,97004.13
2023-06-26T18:00:03.100Z,97005.16
2023-06-26T18:02:29.930Z,97009.59
2023-06-26T18:04:56.642Z,97006.69
2023-06-26T18:07:23.382Z,97017.59
2023-06-26T18:09:50.099Z,97021.66
2023-06-26T18:14:53.999Z,97031.53
2023-06-26T18:17:20.696Z,97034.16
2023-06-26T18:19:47.325Z,97037.56
2023-06-26T18:22:13.977Z,97036.75
2023-06-26T18:24:40.566Z,97037.06
2023-06-26T18:27:07.499Z,97036.56
2023-06-26T18:29:34.188Z,97040.13
2023-06-26T18:32:00.789Z,97045.16
2023-06-26T18:34:27.440Z,97044.97
2023-06-26T18:36:54.371Z,97046.63
2023-06-26T18:39:20.953Z,97056.84
2023-06-26T18:41:47.624Z,97060.72
2023-06-26T18:44:14.521Z,97066.72
2023-06-26T18:46:41.133Z,97076.59
2023-06-26T18:49:07.744Z,97065.72
2023-06-26T18:51:34.424Z,97074.41
2023-06-26T18:54:01.193Z,97080.63
2023-06-26T18:56:33.278Z,97076.25
2023-06-26T18:59:00.008Z,97089.56
2023-06-26T19:01:26.675Z,97081.50
2023-06-26T19:03:53.462Z,97095.13
2023-06-26T19:06:20.137Z,97087.16
2023-06-26T19:08:46.766Z,97094.63
2023-06-26T19:11:13.399Z,97089.06
2023-06-26T19:13:40.047Z,97089.88
2023-06-26T19:16:06.766Z,97094.50
2023-06-26T19:18:33.505Z,97091.59
2023-06-26T19:21:00.264Z,97089.16
2023-06-26T19:23:26.869Z,97096.59
2023-06-26T19:25:53.552Z,97093.84
2023-06-26T19:28:20.267Z,97092.88
2023-06-26T19:30:46.896Z,97097.81
2023-06-26T19:33:13.603Z,97090.88
2023-06-26T19:35:40.482Z,97087.81
2023-06-26T19:38:07.327Z,97094.88
2023-06-26T19:40:34.957Z,97098.13
2023-06-26T19:43:02.291Z,97103.91
2023-06-26T19:45:28.932Z,97101.16
2023-06-26T19:47:55.691Z,97101.06
2023-06-26T19:50:22.531Z,97099.63
2023-06-26T19:52:49.344Z,97105.75
2023-06-26T19:55:16.075Z,97112.91
2023-06-26T19:57:43.196Z,97122.59
2023-06-26T20:00:10.980Z,97115.56
2023-06-26T20:02:37.762Z,97122.47
2023-06-26T20:05:04.526Z,97124.66
2023-06-26T20:07:31.299Z,97125.16
2023-06-26T20:09:58.007Z,97126.09
2023-06-26T20:12:24.670Z,97134.34
2023-06-26T20:14:51.387Z,97138.00
2023-06-26T20:17:18.031Z,97135.34
2023-06-26T20:19:44.843Z,97140.84
2023-06-26T20:22:11.476Z,97141.06
2023-06-26T20:24:39.335Z,97139.44
2023-06-26T20:27:06.013Z,97139.50
2023-06-26T20:29:33.023Z,97144.94
2023-06-26T20:31:59.745Z,97149.69
2023-06-26T20:34:26.434Z,97143.81
2023-06-26T20:36:55.382Z,97143.09
2023-06-26T20:39:21.993Z,97156.13
2023-06-26T20:41:48.878Z,97144.09
2023-06-26T20:44:15.690Z,97145.63
2023-06-26T20:46:42.560Z,97157.50
2023-06-26T20:49:09.374Z,97154.75
2023-06-26T20:51:36.109Z,97157.72
2023-06-26T20:54:02.823Z,97156.41
2023-06-26T20:56:29.418Z,97146.25
2023-06-26T20:58:55.986Z,97146.31
2023-06-26T21:01:22.681Z,97152.03
2023-06-26T21:03:49.362Z,97149.34
2023-06-26T21:06:15.985Z,97151.09
2023-06-26T21:08:42.594Z,97153.84
2023-06-26T21:11:09.231Z,97158.16
2023-06-26T21:13:35.878Z,97165.84
2023-06-26T21:16:02.531Z,97160.88
2023-06-26T21:18:29.228Z,97162.19
2023-06-26T21:20:55.823Z,97166.47
2023-06-26T21:23:22.482Z,97175.53
2023-06-26T21:25:49.081Z,97161.66
2023-06-26T21:28:15.715Z,97163.59
2023-06-26T21:30:42.316Z,97161.66
2023-06-26T21:33:08.996Z,97164.41
2023-06-26T21:35:43.451Z,97154.06
2023-06-26T21:38:10.990Z,97151.59
2023-06-26T21:40:37.676Z,97150.69
2023-06-26T21:43:04.310Z,97151.91
2023-06-26T21:45:30.933Z,97146.28
2023-06-26T21:47:57.845Z,97148.22
2023-06-26T21:50:24.521Z,97156.34
2023-06-26T21:52:51.133Z,97153.00
2023-06-26T21:55:17.732Z,97150.53
2023-06-26T21:57:44.371Z,97159.31
2023-06-26T22:00:11.267Z,97159.91
2023-06-26T22:02:37.920Z,97153.72
2023-06-26T22:05:04.964Z,97154.88
2023-06-26T22:07:37.432Z,97158.94
2023-06-26T22:10:10.324Z,97165.13
2023-06-26T22:12:36.991Z,97175.00
2023-06-26T22:15:03.921Z,97160.44
2023-06-26T22:17:30.899Z,97163.31
2023-06-26T22:19:58.485Z,97160.72
2023-06-26T22:22:28.086Z,97159.53
2023-06-26T22:24:55.120Z,97160.88
2023-06-26T22:27:21.750Z,97169.38
2023-06-26T22:29:48.341Z,97168.88
2023-06-26T22:32:15.270Z,97175.78
2023-06-26T22:34:41.890Z,97175.78
2023-06-26T22:37:08.541Z,97178.31
2023-06-26T22:39:35.207Z,97179.44
2023-06-26T22:42:01.889Z,97175.00
2023-06-26T22:44:28.546Z,97175.06
2023-06-26T22:46:55.188Z,97184.22
2023-06-26T22:49:21.805Z,97177.97
2023-06-26T22:51:48.428Z,97179.34
2023-06-26T22:54:15.096Z,97181.25
2023-06-26T22:56:54.550Z,97181.34
2023-06-26T22:59:22.003Z,97181.31
2023-06-26T23:01:48.753Z,97186.78
2023-06-26T23:04:15.412Z,97182.78
2023-06-26T23:06:41.996Z,97179.66
2023-06-26T23:09:08.623Z,97180.19
2023-06-26T23:11:35.280Z,97187.06
2023-06-26T23:14:01.924Z,97182.84
2023-06-26T23:16:28.570Z,97178.81
2023-06-26T23:18:55.151Z,97173.03
2023-06-26T23:21:21.789Z,97184.88
2023-06-26T23:23:48.630Z,97181.63
2023-06-26T23:26:15.278Z,97186.22
2023-06-26T23:28:41.864Z,97179.84
2023-06-26T23:31:08.557Z,97185.56
2023-06-26T23:33:35.316Z,97186.03
2023-06-26T23:36:01.915Z,97173.06
2023-06-26T23:38:28.581Z,97181.94
2023-06-26T23:40:55.243Z,97180.56
2023-06-26T23:43:21.876Z,97183.34
2023-06-26T23:45:48.572Z,97175.25
2023-06-26T23:48:15.200Z,97181.31
2023-06-26T23:50:41.776Z,97184.22
2023-06-26T23:53:08.462Z,97182.50
2023-06-26T23:55:35.095Z,97182.19
2023-06-26T23:58:01.773Z,97187.00
